createdAt,value
2022-11-24T00:00:16.236Z,10.20
2022-11-24T00:07:03.703Z,9.20
2022-11-24T00:13:27.908Z,10.00
2022-11-24T00:19:52.504Z,9.20
2022-11-24T00:26:17.133Z,9.70
2022-11-24T00:32:41.950Z,9.40
2022-11-24T00:39:06.548Z,9.90
2022-11-24T00:45:31.029Z,9.80
2022-11-24T00:51:58.467Z,9.70
2022-11-24T00:58:22.951Z,8.60
2022-11-24T01:04:47.592Z,11.10
2022-11-24T01:11:12.081Z,9.80
2022-11-24T01:17:36.576Z,8.60
2022-11-24T01:24:01.250Z,9.20
2022-11-24T01:30:25.550Z,8.40
2022-11-24T01:36:50.054Z,9.00
2022-11-24T01:43:18.070Z,8.80
2022-11-24T01:49:45.146Z,8.50
2022-11-24T01:56:12.216Z,8.20
2022-11-24T02:02:36.873Z,9.30
2022-11-24T02:09:01.885Z,7.70
2022-11-24T02:15:26.490Z,8.40
2022-11-24T02:21:51.140Z,7.20
2022-11-24T02:28:15.716Z,8.10
2022-11-24T02:34:40.231Z,7.90
2022-11-24T02:41:04.850Z,6.40
2022-11-24T02:47:29.854Z,7.40
2022-11-24T02:53:54.381Z,6.90
2022-11-24T03:00:19.021Z,6.80
2022-11-24T03:06:43.672Z,7.50
2022-11-24T03:13:11.308Z,6.70
2022-11-24T03:19:35.821Z,7.80
2022-11-24T03:26:00.340Z,6.80
2022-11-24T03:32:24.851Z,6.40
2022-11-24T03:38:49.414Z,6.80
2022-11-24T03:45:44.233Z,6.80
2022-11-24T03:52:00.650Z,7.20
2022-11-24T03:58:28.415Z,5.50
2022-11-24T04:04:53.050Z,6.10
2022-11-24T04:11:17.734Z,5.60
2022-11-24T04:17:42.267Z,5.30
2022-11-24T04:24:07.172Z,6.60
2022-11-24T04:30:31.715Z,5.90
2022-11-24T04:36:56.202Z,5.70
2022-11-24T04:43:20.849Z,6.10
2022-11-24T04:49:45.450Z,5.20
2022-11-24T04:56:10.051Z,4.60
2022-11-24T05:02:34.768Z,5.00
2022-11-24T05:09:02.179Z,5.40
2022-11-24T05:15:26.705Z,5.10
2022-11-24T05:21:51.227Z,5.20
2022-11-24T05:28:14.451Z,5.20
2022-11-24T05:34:38.919Z,4.80
2022-11-24T05:41:03.422Z,5.40
2022-11-24T05:47:27.944Z,4.80
2022-11-24T05:53:52.313Z,4.30
2022-11-24T06:00:16.663Z,4.30
2022-11-24T06:06:41.184Z,3.70
2022-11-24T06:13:05.653Z,3.60
2022-11-24T06:19:29.953Z,5.20
2022-11-24T06:25:54.271Z,4.10
2022-11-24T06:32:18.614Z,4.00
2022-11-24T06:38:41.628Z,3.30
2022-11-24T06:45:09.042Z,3.80
2022-11-24T06:51:33.835Z,3.90
2022-11-24T06:57:58.227Z,3.60
2022-11-24T07:04:22.563Z,3.60
2022-11-24T07:10:47.067Z,3.60
2022-11-24T07:17:19.168Z,4.80
2022-11-24T07:23:43.673Z,4.00
2022-11-24T07:30:08.101Z,6.90
2022-11-24T07:36:32.493Z,5.10
2022-11-24T07:42:56.843Z,4.20
2022-11-24T07:49:21.214Z,3.60
2022-11-24T07:55:45.848Z,3.50
2022-11-24T08:02:10.274Z,3.40
2022-11-24T08:08:34.760Z,4.70
2022-11-24T08:14:59.189Z,3.90
2022-11-24T08:21:23.748Z,4.20
2022-11-24T08:27:48.308Z,4.70
2022-11-24T08:34:12.658Z,6.20
2022-11-24T08:40:37.050Z,3.30
2022-11-24T08:47:01.371Z,3.50
2022-11-24T08:53:25.800Z,3.40
2022-11-24T08:59:50.291Z,3.50
2022-11-24T09:06:14.816Z,3.90
2022-11-24T09:12:39.214Z,3.70
2022-11-24T09:19:03.586Z,4.60
2022-11-24T09:25:27.914Z,3.50
2022-11-24T09:31:52.366Z,4.80
2022-11-24T09:38:16.738Z,5.40
2022-11-24T09:44:46.640Z,4.70
2022-11-24T09:51:17.171Z,3.80
2022-11-24T09:57:41.548Z,4.70
2022-11-24T10:04:15.151Z,11.10
2022-11-24T10:10:51.276Z,3.60
2022-11-24T10:17:24.745Z,4.80
2022-11-24T10:24:07.041Z,5.90
2022-11-24T10:30:31.377Z,4.70
2022-11-24T10:36:55.790Z,6.50
2022-11-24T10:43:20.241Z,6.90
2022-11-24T10:49:44.599Z,7.60
2022-11-24T10:56:08.981Z,5.70
2022-11-24T11:02:33.661Z,4.80
2022-11-24T11:09:16.597Z,5.50
2022-11-24T11:15:41.022Z,5.10
2022-11-24T11:22:08.453Z,7.10
2022-11-24T11:28:32.872Z,13.80
2022-11-24T11:34:59.966Z,17.50
2022-11-24T11:41:24.278Z,10.90
2022-11-24T11:47:48.662Z,21.00
2022-11-24T11:54:16.864Z,10.70
2022-11-24T12:00:41.313Z,8.90
2022-11-24T12:07:26.863Z,8.80
2022-11-24T12:14:03.060Z,9.40
2022-11-24T12:20:27.577Z,8.70
2022-11-24T12:27:04.320Z,8.20
2022-11-24T12:33:47.529Z,8.00
2022-11-24T12:40:17.925Z,8.60
2022-11-24T12:46:51.596Z,6.60
2022-11-24T12:53:25.529Z,8.00
2022-11-24T13:00:02.082Z,7.00
2022-11-24T13:06:28.132Z,7.00
2022-11-24T13:12:52.482Z,6.20
2022-11-24T13:19:33.956Z,7.00
2022-11-24T13:26:15.741Z,6.40
2022-11-24T13:32:42.848Z,8.40
2022-11-24T13:39:21.216Z,8.90
2022-11-24T13:45:48.483Z,7.80
2022-11-24T13:52:12.894Z,9.30
2022-11-24T13:58:42.992Z,6.00
2022-11-24T14:05:22.652Z,9.10
2022-11-24T14:11:53.776Z,7.70
2022-11-24T14:18:21.206Z,5.40
2022-11-24T14:24:45.805Z,6.70
2022-11-24T14:31:13.596Z,6.90
2022-11-24T14:37:38.092Z,7.60
2022-11-24T14:44:11.303Z,6.70
2022-11-24T14:50:35.633Z,6.70
2022-11-24T14:57:12.133Z,8.20
2022-11-24T15:03:42.196Z,11.40
2022-11-24T15:10:06.612Z,6.70
2022-11-24T15:16:36.983Z,6.50
2022-11-24T15:23:16.601Z,8.20
2022-11-24T15:29:40.989Z,6.70
2022-11-24T15:36:05.383Z,8.10
2022-11-24T15:42:29.735Z,7.40
2022-11-24T15:48:54.081Z,7.30
2022-11-24T15:55:18.629Z,9.50
2022-11-24T16:01:42.969Z,7.40
2022-11-24T16:08:07.329Z,12.60
2022-11-24T16:14:31.700Z,13.60
2022-11-24T16:20:46.163Z,12.60
2022-11-24T16:27:10.476Z,11.40
2022-11-24T16:33:35.107Z,13.40
2022-11-24T16:39:59.589Z,11.30
2022-11-24T16:46:23.967Z,14.10
2022-11-24T16:52:41.501Z,11.20
2022-11-24T16:59:05.864Z,11.40
2022-11-24T17:05:30.499Z,13.20
2022-11-24T17:11:57.494Z,14.40
2022-11-24T17:18:25.632Z,12.20
2022-11-24T17:24:40.036Z,12.70
2022-11-24T17:31:05.037Z,14.00
2022-11-24T17:37:29.320Z,12.80
2022-11-24T17:43:53.799Z,12.00
2022-11-24T17:50:22.442Z,12.30
2022-11-24T17:56:49.883Z,10.40
2022-11-24T18:03:14.289Z,12.90
2022-11-24T18:09:18.760Z,14.10
2022-11-24T18:15:43.279Z,12.40
2022-11-24T18:22:07.781Z,12.30
2022-11-24T18:28:32.184Z,11.90
2022-11-24T18:34:56.478Z,11.90
2022-11-24T18:41:11.889Z,12.20
2022-11-24T18:47:21.468Z,11.30
2022-11-24T18:53:45.780Z,13.80
2022-11-24T19:00:10.132Z,11.80
2022-11-24T19:06:33.922Z,12.50
2022-11-24T19:12:52.667Z,10.80
2022-11-24T19:19:17.048Z,10.80
2022-11-24T19:25:41.576Z,10.00
2022-11-24T19:32:06.026Z,11.50
2022-11-24T19:38:29.677Z,11.60
2022-11-24T19:44:56.698Z,11.80
2022-11-24T19:51:21.498Z,12.70
2022-11-24T19:57:45.918Z,12.30
2022-11-24T20:04:10.208Z,11.30
2022-11-24T20:10:31.393Z,11.00
2022-11-24T20:16:53.458Z,13.00
2022-11-24T20:23:17.936Z,11.10
2022-11-24T20:29:46.583Z,10.10
2022-11-24T20:36:11.457Z,12.10
2022-11-24T20:42:35.846Z,11.70
2022-11-24T20:49:00.141Z,10.40
2022-11-24T20:55:17.029Z,12.30
2022-11-24T21:01:43.985Z,10.70
2022-11-24T21:08:08.487Z,11.70
2022-11-24T21:14:35.323Z,11.20
2022-11-24T21:21:00.004Z,12.40
2022-11-24T21:27:24.523Z,15.50
2022-11-24T21:33:48.860Z,14.90
2022-11-24T21:40:04.440Z,12.80
2022-11-24T21:46:28.792Z,13.00
2022-11-24T21:52:53.142Z,14.50
2022-11-24T21:59:17.526Z,12.20
2022-11-24T22:05:41.976Z,16.20
2022-11-24T22:12:06.314Z,12.80
2022-11-24T22:18:30.695Z,16.30
2022-11-24T22:24:55.026Z,14.30
2022-11-24T22:31:19.456Z,15.30
2022-11-24T22:37:43.936Z,17.80
2022-11-24T22:44:08.355Z,16.00
2022-11-24T22:50:32.633Z,15.00
2022-11-24T22:56:56.580Z,14.50
2022-11-24T23:03:21.130Z,14.90
2022-11-24T23:09:45.611Z,15.20
2022-11-24T23:16:10.206Z,14.80
2022-11-24T23:22:34.750Z,15.60
2022-11-24T23:28:59.136Z,15.90
2022-11-24T23:35:23.454Z,16.80
2022-11-24T23:41:47.779Z,13.70
2022-11-24T23:48:12.153Z,14.40
